sensor_id;sensor_type;location;lat;lon;timestamp;temperature;humidity
75155;HTU21D;63735;44.730;37.818;2023-02-15T00:02:19;2.79;80.47
75155;HTU21D;63735;44.730;37.818;2023-02-15T00:04:45;2.75;80.46
75155;HTU21D;63735;44.730;37.818;2023-02-15T00:07:15;2.70;80.54
75155;HTU21D;63735;44.730;37.818;2023-02-15T00:09:41;2.68;80.64
75155;HTU21D;63735;44.730;37.818;2023-02-15T00:12:09;2.66;80.63
75155;HTU21D;63735;44.730;37.818;2023-02-15T00:14:35;2.61;80.72
75155;HTU21D;63735;44.730;37.818;2023-02-15T00:17:01;2.58;80.85
75155;HTU21D;63735;44.730;37.818;2023-02-15T00:19:27;2.58;80.92
75155;HTU21D;63735;44.730;37.818;2023-02-15T00:21:53;2.55;80.90
75155;HTU21D;63735;44.730;37.818;2023-02-15T00:24:19;2.55;80.96
75155;HTU21D;63735;44.730;37.818;2023-02-15T00:26:46;2.54;80.95
75155;HTU21D;63735;44.730;37.818;2023-02-15T00:29:14;2.51;80.94
75155;HTU21D;63735;44.730;37.818;2023-02-15T00:31:40;2.47;81.03
75155;HTU21D;63735;44.730;37.818;2023-02-15T00:36:39;2.45;81.12
75155;HTU21D;63735;44.730;37.818;2023-02-15T00:39:06;2.43;81.20
75155;HTU21D;63735;44.730;37.818;2023-02-15T00:41:34;2.43;81.33
75155;HTU21D;63735;44.730;37.818;2023-02-15T00:44:00;2.38;81.34
75155;HTU21D;63735;44.730;37.818;2023-02-15T00:46:29;2.41;81.35
75155;HTU21D;63735;44.730;37.818;2023-02-15T00:48:54;2.44;81.30
75155;HTU21D;63735;44.730;37.818;2023-02-15T00:51:20;2.47;81.27
75155;HTU21D;63735;44.730;37.818;2023-02-15T00:53:47;2.51;81.23
75155;HTU21D;63735;44.730;37.818;2023-02-15T00:56:13;2.54;81.18
75155;HTU21D;63735;44.730;37.818;2023-02-15T00:58:39;2.59;81.11
75155;HTU21D;63735;44.730;37.818;2023-02-15T01:01:10;2.62;81.01
75155;HTU21D;63735;44.730;37.818;2023-02-15T01:03:37;2.64;80.94
75155;HTU21D;63735;44.730;37.818;2023-02-15T01:06:04;2.66;80.85
75155;HTU21D;63735;44.730;37.818;2023-02-15T01:08:31;2.65;80.79
75155;HTU21D;63735;44.730;37.818;2023-02-15T01:10:57;2.65;80.76
75155;HTU21D;63735;44.730;37.818;2023-02-15T01:13:29;2.64;80.72
75155;HTU21D;63735;44.730;37.818;2023-02-15T01:15:55;2.59;80.72
75155;HTU21D;63735;44.730;37.818;2023-02-15T01:18:21;2.55;80.78
75155;HTU21D;63735;44.730;37.818;2023-02-15T01:20:48;2.52;80.78
75155;HTU21D;63735;44.730;37.818;2023-02-15T01:23:14;2.50;80.81
75155;HTU21D;63735;44.730;37.818;2023-02-15T01:25:40;2.45;80.81
75155;HTU21D;63735;44.730;37.818;2023-02-15T01:28:06;2.42;80.81
75155;HTU21D;63735;44.730;37.818;2023-02-15T01:30:32;2.41;80.85
75155;HTU21D;63735;44.730;37.818;2023-02-15T01:32:58;2.42;80.83
75155;HTU21D;63735;44.730;37.818;2023-02-15T01:35:27;2.42;80.81
75155;HTU21D;63735;44.730;37.818;2023-02-15T01:37:54;2.42;80.78
75155;HTU21D;63735;44.730;37.818;2023-02-15T01:40:20;2.41;80.72
75155;HTU21D;63735;44.730;37.818;2023-02-15T01:42:51;2.41;80.69
75155;HTU21D;63735;44.730;37.818;2023-02-15T01:45:27;2.42;80.65
75155;HTU21D;63735;44.730;37.818;2023-02-15T01:48:24;2.39;80.63
75155;HTU21D;63735;44.730;37.818;2023-02-15T01:50:56;2.38;80.58
75155;HTU21D;63735;44.730;37.818;2023-02-15T01:53:34;2.34;80.57
75155;HTU21D;63735;44.730;37.818;2023-02-15T01:56:09;2.31;80.56
75155;HTU21D;63735;44.730;37.818;2023-02-15T01:58:37;2.28;80.55
75155;HTU21D;63735;44.730;37.818;2023-02-15T02:01:04;2.27;80.56
75155;HTU21D;63735;44.730;37.818;2023-02-15T02:06:32;2.24;80.53
75155;HTU21D;63735;44.730;37.818;2023-02-15T02:09:00;2.23;80.58
75155;HTU21D;63735;44.730;37.818;2023-02-15T02:11:26;2.23;80.53
75155;HTU21D;63735;44.730;37.818;2023-02-15T02:13:53;2.22;80.57
75155;HTU21D;63735;44.730;37.818;2023-02-15T02:35:49;2.19;80.80
75155;HTU21D;63735;44.730;37.818;2023-02-15T02:41:17;2.24;80.88
75155;HTU21D;63735;44.730;37.818;2023-02-15T02:46:42;2.34;80.76
75155;HTU21D;63735;44.730;37.818;2023-02-15T02:49:09;2.36;80.66
75155;HTU21D;63735;44.730;37.818;2023-02-15T02:51:35;2.34;80.70
75155;HTU21D;63735;44.730;37.818;2023-02-15T02:54:05;2.31;80.71
75155;HTU21D;63735;44.730;37.818;2023-02-15T02:56:43;2.34;80.74
75155;HTU21D;63735;44.730;37.818;2023-02-15T02:59:24;2.35;80.73
75155;HTU21D;63735;44.730;37.818;2023-02-15T03:02:40;2.34;80.69
75155;HTU21D;63735;44.730;37.818;2023-02-15T03:04:51;2.31;80.64
75155;HTU21D;63735;44.730;37.818;2023-02-15T03:07:26;2.28;80.70
75155;HTU21D;63735;44.730;37.818;2023-02-15T03:09:56;2.24;80.81
75155;HTU21D;63735;44.730;37.818;2023-02-15T03:12:31;2.22;80.87
75155;HTU21D;63735;44.730;37.818;2023-02-15T03:17:36;2.21;80.94
75155;HTU21D;63735;44.730;37.818;2023-02-15T03:20:30;2.23;80.97
75155;HTU21D;63735;44.730;37.818;2023-02-15T03:23:04;2.21;80.91
75155;HTU21D;63735;44.730;37.818;2023-02-15T03:25:41;2.20;80.98
75155;HTU21D;63735;44.730;37.818;2023-02-15T03:28:13;2.22;80.99
75155;HTU21D;63735;44.730;37.818;2023-02-15T03:30:40;2.22;80.96
75155;HTU21D;63735;44.730;37.818;2023-02-15T03:33:08;2.22;81.01
75155;HTU21D;63735;44.730;37.818;2023-02-15T03:38:21;2.22;81.14
75155;HTU21D;63735;44.730;37.818;2023-02-15T03:40:51;2.22;81.10
75155;HTU21D;63735;44.730;37.818;2023-02-15T03:43:52;2.21;81.09
75155;HTU21D;63735;44.730;37.818;2023-02-15T03:46:37;2.17;81.17
75155;HTU21D;63735;44.730;37.818;2023-02-15T03:49:14;2.20;81.20
75155;HTU21D;63735;44.730;37.818;2023-02-15T03:51:44;2.21;81.15
75155;HTU21D;63735;44.730;37.818;2023-02-15T03:57:07;2.20;81.23
75155;HTU21D;63735;44.730;37.818;2023-02-15T03:59:53;2.21;81.27
75155;HTU21D;63735;44.730;37.818;2023-02-15T04:05:14;2.17;81.43
75155;HTU21D;63735;44.730;37.818;2023-02-15T04:07:40;2.19;81.48
75155;HTU21D;63735;44.730;37.818;2023-02-15T04:10:06;2.17;81.52
75155;HTU21D;63735;44.730;37.818;2023-02-15T04:12:50;2.20;81.52
75155;HTU21D;63735;44.730;37.818;2023-02-15T04:15:16;2.19;81.55
75155;HTU21D;63735;44.730;37.818;2023-02-15T04:18:02;2.19;81.59
75155;HTU21D;63735;44.730;37.818;2023-02-15T04:20:29;2.21;81.59
75155;HTU21D;63735;44.730;37.818;2023-02-15T04:23:13;2.22;81.59
75155;HTU21D;63735;44.730;37.818;2023-02-15T04:25:57;2.20;81.65
75155;HTU21D;63735;44.730;37.818;2023-02-15T04:28:23;2.17;81.68
75155;HTU21D;63735;44.730;37.818;2023-02-15T04:30:49;2.15;81.78
75155;HTU21D;63735;44.730;37.818;2023-02-15T04:33:15;2.14;81.91
75155;HTU21D;63735;44.730;37.818;2023-02-15T04:35:43;2.14;81.96
75155;HTU21D;63735;44.730;37.818;2023-02-15T04:38:10;2.17;81.97
75155;HTU21D;63735;44.730;37.818;2023-02-15T04:40:36;2.24;81.94
75155;HTU21D;63735;44.730;37.818;2023-02-15T04:43:02;2.27;81.90
75155;HTU21D;63735;44.730;37.818;2023-02-15T04:45:28;2.29;81.88
75155;HTU21D;63735;44.730;37.818;2023-02-15T04:47:54;2.31;81.82
75155;HTU21D;63735;44.730;37.818;2023-02-15T04:50:20;2.32;81.80
75155;HTU21D;63735;44.730;37.818;2023-02-15T04:52:46;2.27;81.77
75155;HTU21D;63735;44.730;37.818;2023-02-15T04:55:12;2.20;81.85
75155;HTU21D;63735;44.730;37.818;2023-02-15T04:57:37;2.16;81.91
75155;HTU21D;63735;44.730;37.818;2023-02-15T05:00:04;2.12;81.90
75155;HTU21D;63735;44.730;37.818;2023-02-15T05:02:30;2.08;81.96
75155;HTU21D;63735;44.730;37.818;2023-02-15T05:04:56;2.06;81.99
75155;HTU21D;63735;44.730;37.818;2023-02-15T05:07:22;2.03;82.02
75155;HTU21D;63735;44.730;37.818;2023-02-15T05:09:47;2.01;82.07
75155;HTU21D;63735;44.730;37.818;2023-02-15T05:12:13;2.00;82.06
75155;HTU21D;63735;44.730;37.818;2023-02-15T05:14:39;1.98;82.07
75155;HTU21D;63735;44.730;37.818;2023-02-15T05:17:05;1.99;82.18
75155;HTU21D;63735;44.730;37.818;2023-02-15T05:19:31;2.05;82.29
75155;HTU21D;63735;44.730;37.818;2023-02-15T05:21:57;2.14;82.18
75155;HTU21D;63735;44.730;37.818;2023-02-15T05:24:23;2.22;82.01
75155;HTU21D;63735;44.730;37.818;2023-02-15T05:27:10;2.32;81.81
75155;HTU21D;63735;44.730;37.818;2023-02-15T05:29:55;2.38;81.61
75155;HTU21D;63735;44.730;37.818;2023-02-15T05:32:20;2.44;81.47
75155;HTU21D;63735;44.730;37.818;2023-02-15T05:34:46;2.45;81.33
75155;HTU21D;63735;44.730;37.818;2023-02-15T05:37:12;2.40;81.34
75155;HTU21D;63735;44.730;37.818;2023-02-15T05:39:38;2.38;81.45
75155;HTU21D;63735;44.730;37.818;2023-02-15T05:42:04;2.32;81.49
75155;HTU21D;63735;44.730;37.818;2023-02-15T05:44:30;2.29;81.52
75155;HTU21D;63735;44.730;37.818;2023-02-15T05:46:56;2.28;81.65
75155;HTU21D;63735;44.730;37.818;2023-02-15T05:49:22;2.28;81.64
75155;HTU21D;63735;44.730;37.818;2023-02-15T05:51:49;2.24;81.65
75155;HTU21D;63735;44.730;37.818;2023-02-15T05:54:14;2.23;81.71
75155;HTU21D;63735;44.730;37.818;2023-02-15T05:56:41;2.17;81.75
75155;HTU21D;63735;44.730;37.818;2023-02-15T05:59:07;2.17;81.81
75155;HTU21D;63735;44.730;37.818;2023-02-15T06:01:32;2.19;81.77
75155;HTU21D;63735;44.730;37.818;2023-02-15T06:03:58;2.21;81.74
75155;HTU21D;63735;44.730;37.818;2023-02-15T06:06:24;2.21;81.68
75155;HTU21D;63735;44.730;37.818;2023-02-15T06:08:50;2.20;81.70
75155;HTU21D;63735;44.730;37.818;2023-02-15T06:11:16;2.17;81.72
75155;HTU21D;63735;44.730;37.818;2023-02-15T06:13:42;2.15;81.82
75155;HTU21D;63735;44.730;37.818;2023-02-15T06:16:08;2.13;81.88
75155;HTU21D;63735;44.730;37.818;2023-02-15T06:18:34;2.13;81.97
75155;HTU21D;63735;44.730;37.818;2023-02-15T06:21:00;2.15;81.97
75155;HTU21D;63735;44.730;37.818;2023-02-15T06:23:26;2.19;82.01
75155;HTU21D;63735;44.730;37.818;2023-02-15T06:25:52;2.20;82.01
75155;HTU21D;63735;44.730;37.818;2023-02-15T06:28:18;2.24;81.98
75155;HTU21D;63735;44.730;37.818;2023-02-15T06:30:44;2.26;81.96
75155;HTU21D;63735;44.730;37.818;2023-02-15T06:33:09;2.27;81.95
75155;HTU21D;63735;44.730;37.818;2023-02-15T06:35:35;2.26;81.96
75155;HTU21D;63735;44.730;37.818;2023-02-15T06:38:01;2.31;81.92
75155;HTU21D;63735;44.730;37.818;2023-02-15T06:40:27;2.37;81.87
75155;HTU21D;63735;44.730;37.818;2023-02-15T06:42:53;2.40;81.73
75155;HTU21D;63735;44.730;37.818;2023-02-15T06:45:19;2.34;81.68
75155;HTU21D;63735;44.730;37.818;2023-02-15T06:47:45;2.34;81.73
75155;HTU21D;63735;44.730;37.818;2023-02-15T06:50:11;2.37;81.78
75155;HTU21D;63735;44.730;37.818;2023-02-15T06:52:37;2.39;81.65
75155;HTU21D;63735;44.730;37.818;2023-02-15T06:55:04;2.43;81.65
75155;HTU21D;63735;44.730;37.818;2023-02-15T06:57:30;2.47;81.65
75155;HTU21D;63735;44.730;37.818;2023-02-15T06:59:56;2.55;81.55
75155;HTU21D;63735;44.730;37.818;2023-02-15T07:02:24;2.54;81.32
75155;HTU21D;63735;44.730;37.818;2023-02-15T07:04:49;2.55;81.46
75155;HTU21D;63735;44.730;37.818;2023-02-15T07:07:15;2.62;81.44
75155;HTU21D;63735;44.730;37.818;2023-02-15T07:09:41;2.72;81.39
75155;HTU21D;63735;44.730;37.818;2023-02-15T07:12:07;2.88;81.36
75155;HTU21D;63735;44.730;37.818;2023-02-15T07:14:51;3.08;80.85
75155;HTU21D;63735;44.730;37.818;2023-02-15T07:17:17;3.06;80.79
75155;HTU21D;63735;44.730;37.818;2023-02-15T07:19:43;3.09;80.58
75155;HTU21D;63735;44.730;37.818;2023-02-15T07:22:09;3.06;80.65
75155;HTU21D;63735;44.730;37.818;2023-02-15T07:24:35;3.17;80.62
75155;HTU21D;63735;44.730;37.818;2023-02-15T07:27:01;3.57;80.65
75155;HTU21D;63735;44.730;37.818;2023-02-15T07:29:27;3.95;79.72
75155;HTU21D;63735;44.730;37.818;2023-02-15T07:31:53;4.08;79.24
75155;HTU21D;63735;44.730;37.818;2023-02-15T07:34:18;4.19;79.05
75155;HTU21D;63735;44.730;37.818;2023-02-15T07:36:44;4.22;78.69
75155;HTU21D;63735;44.730;37.818;2023-02-15T07:39:11;4.24;78.82
75155;HTU21D;63735;44.730;37.818;2023-02-15T07:41:37;4.27;78.50
75155;HTU21D;63735;44.730;37.818;2023-02-15T07:44:14;4.34;77.56
75155;HTU21D;63735;44.730;37.818;2023-02-15T07:46:40;4.36;77.71
75155;HTU21D;63735;44.730;37.818;2023-02-15T07:49:06;4.71;77.18
75155;HTU21D;63735;44.730;37.818;2023-02-15T07:51:32;4.72;76.89
75155;HTU21D;63735;44.730;37.818;2023-02-15T07:53:58;4.71;75.83
75155;HTU21D;63735;44.730;37.818;2023-02-15T07:56:24;4.56;76.19
75155;HTU21D;63735;44.730;37.818;2023-02-15T07:58:50;4.46;76.14
75155;HTU21D;63735;44.730;37.818;2023-02-15T08:01:30;4.64;76.23
75155;HTU21D;63735;44.730;37.818;2023-02-15T08:03:57;4.74;76.21
75155;HTU21D;63735;44.730;37.818;2023-02-15T08:06:25;4.82;75.82
75155;HTU21D;63735;44.730;37.818;2023-02-15T08:08:52;4.76;75.83
75155;HTU21D;63735;44.730;37.818;2023-02-15T08:18:47;5.61;74.09
75155;HTU21D;63735;44.730;37.818;2023-02-15T08:21:13;5.46;74.25
75155;HTU21D;63735;44.730;37.818;2023-02-15T08:23:39;5.28;74.41
75155;HTU21D;63735;44.730;37.818;2023-02-15T08:26:05;5.16;74.08
75155;HTU21D;63735;44.730;37.818;2023-02-15T08:28:31;5.07;74.34
75155;HTU21D;63735;44.730;37.818;2023-02-15T08:31:09;5.09;74.34
75155;HTU21D;63735;44.730;37.818;2023-02-15T08:33:38;5.12;73.70
75155;HTU21D;63735;44.730;37.818;2023-02-15T08:36:15;5.31;73.98
75155;HTU21D;63735;44.730;37.818;2023-02-15T08:38:42;5.50;73.42
75155;HTU21D;63735;44.730;37.818;2023-02-15T08:43:46;6.54;71.49
75155;HTU21D;63735;44.730;37.818;2023-02-15T08:46:14;6.61;70.45
75155;HTU21D;63735;44.730;37.818;2023-02-15T08:48:41;6.57;70.94
75155;HTU21D;63735;44.730;37.818;2023-02-15T08:51:12;6.95;70.64
75155;HTU21D;63735;44.730;37.818;2023-02-15T08:53:40;7.19;69.28
75155;HTU21D;63735;44.730;37.818;2023-02-15T08:56:06;6.81;69.06
75155;HTU21D;63735;44.730;37.818;2023-02-15T08:58:33;6.69;69.20
75155;HTU21D;63735;44.730;37.818;2023-02-15T09:01:00;7.14;68.64
75155;HTU21D;63735;44.730;37.818;2023-02-15T09:03:28;7.60;68.17
75155;HTU21D;63735;44.730;37.818;2023-02-15T09:05:59;8.11;66.68
75155;HTU21D;63735;44.730;37.818;2023-02-15T09:08:26;8.32;65.56
75155;HTU21D;63735;44.730;37.818;2023-02-15T09:10:52;8.64;65.21
75155;HTU21D;63735;44.730;37.818;2023-02-15T09:13:18;9.01;64.41
75155;HTU21D;63735;44.730;37.818;2023-02-15T09:15:46;9.01;63.30
75155;HTU21D;63735;44.730;37.818;2023-02-15T09:18:12;8.48;64.11
75155;HTU21D;63735;44.730;37.818;2023-02-15T09:20:43;8.34;63.92
75155;HTU21D;63735;44.730;37.818;2023-02-15T09:23:10;8.05;64.65
75155;HTU21D;63735;44.730;37.818;2023-02-15T09:25:36;7.99;64.33
75155;HTU21D;63735;44.730;37.818;2023-02-15T09:28:02;8.08;63.80
75155;HTU21D;63735;44.730;37.818;2023-02-15T09:30:27;8.06;63.64
75155;HTU21D;63735;44.730;37.818;2023-02-15T09:32:53;7.67;63.89
75155;HTU21D;63735;44.730;37.818;2023-02-15T09:35:20;7.37;63.87
75155;HTU21D;63735;44.730;37.818;2023-02-15T09:37:46;6.97;64.65
75155;HTU21D;63735;44.730;37.818;2023-02-15T09:40:13;7.01;65.24
75155;HTU21D;63735;44.730;37.818;2023-02-15T09:45:46;7.84;64.08
75155;HTU21D;63735;44.730;37.818;2023-02-15T09:48:24;8.19;63.82
75155;HTU21D;63735;44.730;37.818;2023-02-15T09:51:17;8.63;63.12
75155;HTU21D;63735;44.730;37.818;2023-02-15T09:56:57;9.49;59.75
75155;HTU21D;63735;44.730;37.818;2023-02-15T10:00:22;9.62;60.18
75155;HTU21D;63735;44.730;37.818;2023-02-15T10:02:55;9.67;58.95
75155;HTU21D;63735;44.730;37.818;2023-02-15T10:11:03;9.92;58.16
75155;HTU21D;63735;44.730;37.818;2023-02-15T10:14:06;10.05;57.57
75155;HTU21D;63735;44.730;37.818;2023-02-15T10:17:02;9.92;56.74
75155;HTU21D;63735;44.730;37.818;2023-02-15T10:22:58;9.84;54.83
75155;HTU21D;63735;44.730;37.818;2023-02-15T10:25:57;9.78;55.36
75155;HTU21D;63735;44.730;37.818;2023-02-15T10:31:26;10.14;55.27
75155;HTU21D;63735;44.730;37.818;2023-02-15T10:51:51;10.35;51.09
75155;HTU21D;63735;44.730;37.818;2023-02-15T11:00:32;10.59;49.05
75155;HTU21D;63735;44.730;37.818;2023-02-15T11:06:10;10.44;49.85
75155;HTU21D;63735;44.730;37.818;2023-02-15T11:08:45;10.53;49.94
75155;HTU21D;63735;44.730;37.818;2023-02-15T11:11:33;10.69;49.19
75155;HTU21D;63735;44.730;37.818;2023-02-15T11:16:49;10.85;50.19
75155;HTU21D;63735;44.730;37.818;2023-02-15T11:19:49;10.80;49.18
75155;HTU21D;63735;44.730;37.818;2023-02-15T11:22:10;10.83;49.18
75155;HTU21D;63735;44.730;37.818;2023-02-15T11:24:46;10.88;49.78
75155;HTU21D;63735;44.730;37.818;2023-02-15T11:30:14;11.01;49.09
75155;HTU21D;63735;44.730;37.818;2023-02-15T11:32:44;11.13;49.12
75155;HTU21D;63735;44.730;37.818;2023-02-15T11:35:24;11.54;48.43
75155;HTU21D;63735;44.730;37.818;2023-02-15T11:40:47;10.69;49.23
75155;HTU21D;63735;44.730;37.818;2023-02-15T11:43:28;10.06;50.02
75155;HTU21D;63735;44.730;37.818;2023-02-15T11:45:56;9.49;50.73
75155;HTU21D;63735;44.730;37.818;2023-02-15T11:48:22;9.04;50.79
75155;HTU21D;63735;44.730;37.818;2023-02-15T11:50:48;8.61;51.53
75155;HTU21D;63735;44.730;37.818;2023-02-15T11:53:21;8.28;51.69
75155;HTU21D;63735;44.730;37.818;2023-02-15T11:55:50;7.94;51.88
75155;HTU21D;63735;44.730;37.818;2023-02-15T12:01:24;7.48;53.09
75155;HTU21D;63735;44.730;37.818;2023-02-15T12:04:06;7.28;53.33
75155;HTU21D;63735;44.730;37.818;2023-02-15T12:06:41;7.03;53.81
75155;HTU21D;63735;44.730;37.818;2023-02-15T12:09:37;6.91;54.30
75155;HTU21D;63735;44.730;37.818;2023-02-15T12:12:29;6.76;54.53
75155;HTU21D;63735;44.730;37.818;2023-02-15T12:14:57;6.64;54.84
75155;HTU21D;63735;44.730;37.818;2023-02-15T12:17:24;6.67;54.94
75155;HTU21D;63735;44.730;37.818;2023-02-15T12:19:57;6.68;55.32
75155;HTU21D;63735;44.730;37.818;2023-02-15T12:22:26;6.66;55.42
75155;HTU21D;63735;44.730;37.818;2023-02-15T12:24:56;6.56;55.49
75155;HTU21D;63735;44.730;37.818;2023-02-15T12:27:28;6.42;55.74
75155;HTU21D;63735;44.730;37.818;2023-02-15T12:32:27;6.01;56.35
75155;HTU21D;63735;44.730;37.818;2023-02-15T12:35:15;5.78;56.72
75155;HTU21D;63735;44.730;37.818;2023-02-15T12:37:55;5.54;57.13
75155;HTU21D;63735;44.730;37.818;2023-02-15T12:40:27;5.45;57.61
75155;HTU21D;63735;44.730;37.818;2023-02-15T12:42:54;5.31;57.80
75155;HTU21D;63735;44.730;37.818;2023-02-15T12:45:29;5.28;58.07
75155;HTU21D;63735;44.730;37.818;2023-02-15T12:48:13;5.21;58.36
75155;HTU21D;63735;44.730;37.818;2023-02-15T12:50:47;5.16;58.51
75155;HTU21D;63735;44.730;37.818;2023-02-15T12:53:15;5.12;58.70
75155;HTU21D;63735;44.730;37.818;2023-02-15T12:55:53;5.06;58.93
75155;HTU21D;63735;44.730;37.818;2023-02-15T12:58:28;4.92;59.03
75155;HTU21D;63735;44.730;37.818;2023-02-15T13:01:17;4.81;59.44
75155;HTU21D;63735;44.730;37.818;2023-02-15T13:04:03;4.80;59.67
75155;HTU21D;63735;44.730;37.818;2023-02-15T13:06:33;4.78;59.73
75155;HTU21D;63735;44.730;37.818;2023-02-15T13:12:21;4.69;60.21
75155;HTU21D;63735;44.730;37.818;2023-02-15T13:14:49;4.67;60.37
75155;HTU21D;63735;44.730;37.818;2023-02-15T13:17:40;4.68;60.49
75155;HTU21D;63735;44.730;37.818;2023-02-15T13:20:18;4.69;60.57
75155;HTU21D;63735;44.730;37.818;2023-02-15T13:22:46;4.66;60.63
75155;HTU21D;63735;44.730;37.818;2023-02-15T13:27:43;4.53;60.75
75155;HTU21D;63735;44.730;37.818;2023-02-15T13:30:24;4.41;61.29
75155;HTU21D;63735;44.730;37.818;2023-02-15T13:41:32;3.97;61.86
75155;HTU21D;63735;44.730;37.818;2023-02-15T14:16:53;3.36;63.76
75155;HTU21D;63735;44.730;37.818;2023-02-15T14:25:18;3.23;64.17
75155;HTU21D;63735;44.730;37.818;2023-02-15T14:28:08;3.16;64.20
75155;HTU21D;63735;44.730;37.818;2023-02-15T14:30:41;3.11;64.36
75155;HTU21D;63735;44.730;37.818;2023-02-15T14:33:38;3.10;64.56
75155;HTU21D;63735;44.730;37.818;2023-02-15T14:36:13;3.14;64.44
75155;HTU21D;63735;44.730;37.818;2023-02-15T14:38:50;3.17;64.42
75155;HTU21D;63735;44.730;37.818;2023-02-15T14:41:24;3.12;64.53
75155;HTU21D;63735;44.730;37.818;2023-02-15T14:44:01;3.10;64.74
75155;HTU21D;63735;44.730;37.818;2023-02-15T14:49:20;3.00;64.82
75155;HTU21D;63735;44.730;37.818;2023-02-15T14:56:45;2.88;65.27
75155;HTU21D;63735;44.730;37.818;2023-02-15T15:01:38;2.78;65.46
75155;HTU21D;63735;44.730;37.818;2023-02-15T15:04:14;2.75;65.53
75155;HTU21D;63735;44.730;37.818;2023-02-15T15:07:44;2.74;65.55
75155;HTU21D;63735;44.730;37.818;2023-02-15T15:09:45;2.71;65.71
75155;HTU21D;63735;44.730;37.818;2023-02-15T15:14:48;2.64;65.80
75155;HTU21D;63735;44.730;37.818;2023-02-15T15:22:50;2.49;66.03
75155;HTU21D;63735;44.730;37.818;2023-02-15T15:25:43;2.44;66.09
75155;HTU21D;63735;44.730;37.818;2023-02-15T15:31:43;2.32;66.44
75155;HTU21D;63735;44.730;37.818;2023-02-15T15:35:02;2.27;66.57
75155;HTU21D;63735;44.730;37.818;2023-02-15T15:49:24;2.19;66.67
75155;HTU21D;63735;44.730;37.818;2023-02-15T15:51:52;2.12;66.75
75155;HTU21D;63735;44.730;37.818;2023-02-15T15:54:19;2.07;66.77
75155;HTU21D;63735;44.730;37.818;2023-02-15T15:56:49;2.00;66.77
75155;HTU21D;63735;44.730;37.818;2023-02-15T15:59:18;1.98;66.78
75155;HTU21D;63735;44.730;37.818;2023-02-15T16:01:44;1.94;66.83
75155;HTU21D;63735;44.730;37.818;2023-02-15T16:04:21;1.87;66.90
75155;HTU21D;63735;44.730;37.818;2023-02-15T16:06:47;1.83;66.99
75155;HTU21D;63735;44.730;37.818;2023-02-15T16:09:26;1.79;67.17
75155;HTU21D;63735;44.730;37.818;2023-02-15T16:11:52;1.75;67.26
75155;HTU21D;63735;44.730;37.818;2023-02-15T16:14:25;1.72;67.26
75155;HTU21D;63735;44.730;37.818;2023-02-15T16:16:52;1.70;67.13
75155;HTU21D;63735;44.730;37.818;2023-02-15T16:19:20;1.66;67.37
75155;HTU21D;63735;44.730;37.818;2023-02-15T16:21:46;1.63;67.45
75155;HTU21D;63735;44.730;37.818;2023-02-15T16:29:18;1.57;67.72
75155;HTU21D;63735;44.730;37.818;2023-02-15T16:32:00;1.56;67.75
75155;HTU21D;63735;44.730;37.818;2023-02-15T16:34:27;1.55;67.62
75155;HTU21D;63735;44.730;37.818;2023-02-15T16:39:57;1.53;67.65
75155;HTU21D;63735;44.730;37.818;2023-02-15T16:42:23;1.51;67.69
75155;HTU21D;63735;44.730;37.818;2023-02-15T16:47:25;1.48;67.67
75155;HTU21D;63735;44.730;37.818;2023-02-15T16:49:52;1.47;67.77
75155;HTU21D;63735;44.730;37.818;2023-02-15T16:52:20;1.46;67.88
75155;HTU21D;63735;44.730;37.818;2023-02-15T16:54:47;1.45;67.93
75155;HTU21D;63735;44.730;37.818;2023-02-15T16:57:20;1.43;68.10
75155;HTU21D;63735;44.730;37.818;2023-02-15T16:59:48;1.40;68.06
75155;HTU21D;63735;44.730;37.818;2023-02-15T17:02:25;1.40;68.04
75155;HTU21D;63735;44.730;37.818;2023-02-15T17:05:00;1.37;68.05
75155;HTU21D;63735;44.730;37.818;2023-02-15T17:07:26;1.37;68.09
75155;HTU21D;63735;44.730;37.818;2023-02-15T17:09:53;1.34;68.18
75155;HTU21D;63735;44.730;37.818;2023-02-15T17:15:03;1.29;68.38
75155;HTU21D;63735;44.730;37.818;2023-02-15T17:17:30;1.27;68.39
75155;HTU21D;63735;44.730;37.818;2023-02-15T17:19:56;1.25;68.41
75155;HTU21D;63735;44.730;37.818;2023-02-15T17:22:23;1.24;68.43
75155;HTU21D;63735;44.730;37.818;2023-02-15T17:24:50;1.22;68.45
75155;HTU21D;63735;44.730;37.818;2023-02-15T17:27:24;1.21;68.40
75155;HTU21D;63735;44.730;37.818;2023-02-15T17:29:51;1.20;68.51
75155;HTU21D;63735;44.730;37.818;2023-02-15T17:32:19;1.19;68.67
75155;HTU21D;63735;44.730;37.818;2023-02-15T17:39:56;1.09;68.77
75155;HTU21D;63735;44.730;37.818;2023-02-15T17:42:21;1.07;68.84
75155;HTU21D;63735;44.730;37.818;2023-02-15T17:44:48;1.07;68.93
75155;HTU21D;63735;44.730;37.818;2023-02-15T17:47:18;1.04;68.97
75155;HTU21D;63735;44.730;37.818;2023-02-15T17:49:45;1.02;69.00
75155;HTU21D;63735;44.730;37.818;2023-02-15T17:52:13;1.01;69.24
75155;HTU21D;63735;44.730;37.818;2023-02-15T17:54:41;0.99;69.37
75155;HTU21D;63735;44.730;37.818;2023-02-15T17:57:28;0.97;69.39
75155;HTU21D;63735;44.730;37.818;2023-02-15T17:59:54;0.96;69.33
75155;HTU21D;63735;44.730;37.818;2023-02-15T18:02:38;0.93;69.39
75155;HTU21D;63735;44.730;37.818;2023-02-15T18:05:23;0.92;69.59
75155;HTU21D;63735;44.730;37.818;2023-02-15T18:08:15;0.90;69.55
75155;HTU21D;63735;44.730;37.818;2023-02-15T18:10:59;0.88;69.69
75155;HTU21D;63735;44.730;37.818;2023-02-15T18:13:43;0.82;69.93
75155;HTU21D;63735;44.730;37.818;2023-02-15T18:16:21;0.79;69.96
75155;HTU21D;63735;44.730;37.818;2023-02-15T18:18:47;0.78;70.02
75155;HTU21D;63735;44.730;37.818;2023-02-15T18:21:13;0.77;70.14
75155;HTU21D;63735;44.730;37.818;2023-02-15T18:23:39;0.76;70.51
75155;HTU21D;63735;44.730;37.818;2023-02-15T18:26:05;0.77;70.16
75155;HTU21D;63735;44.730;37.818;2023-02-15T18:28:31;0.76;70.13
75155;HTU21D;63735;44.730;37.818;2023-02-15T18:30:57;0.74;70.19
75155;HTU21D;63735;44.730;37.818;2023-02-15T18:36:31;0.74;70.40
75155;HTU21D;63735;44.730;37.818;2023-02-15T18:38:58;0.76;70.39
75155;HTU21D;63735;44.730;37.818;2023-02-15T18:41:24;0.76;70.39
75155;HTU21D;63735;44.730;37.818;2023-02-15T18:43:50;0.75;70.64
75155;HTU21D;63735;44.730;37.818;2023-02-15T18:46:18;0.75;70.54
75155;HTU21D;63735;44.730;37.818;2023-02-15T18:48:44;0.75;70.61
75155;HTU21D;63735;44.730;37.818;2023-02-15T18:51:17;0.71;70.81
75155;HTU21D;63735;44.730;37.818;2023-02-15T18:53:44;0.69;70.81
75155;HTU21D;63735;44.730;37.818;2023-02-15T18:56:17;0.68;71.10
75155;HTU21D;63735;44.730;37.818;2023-02-15T18:58:43;0.66;71.34
75155;HTU21D;63735;44.730;37.818;2023-02-15T19:01:12;0.63;71.35
75155;HTU21D;63735;44.730;37.818;2023-02-15T19:03:42;0.61;71.58
75155;HTU21D;63735;44.730;37.818;2023-02-15T19:06:11;0.60;71.70
75155;HTU21D;63735;44.730;37.818;2023-02-15T19:08:37;0.57;72.09
75155;HTU21D;63735;44.730;37.818;2023-02-15T19:11:03;0.55;72.19
75155;HTU21D;63735;44.730;37.818;2023-02-15T19:13:29;0.54;72.18
75155;HTU21D;63735;44.730;37.818;2023-02-15T19:15:55;0.55;72.25
75155;HTU21D;63735;44.730;37.818;2023-02-15T19:18:21;0.54;72.29